Time;durP1;ratioP1;P1;durP2;ratioP2;P2;SDS_P1;SDS_P2;PMS_P1;PMS_P2;Temp;Humidity;BMP_temperature;BMP_pressure;BME280_temperature;BME280_humidity;BME280_pressure;Samples;Min_cycle;Max_cycle;Signal;HPM_P1;HPM_P2
2021/07/14 00:02:06;;;;;;;22.40;15.17;;;16.00;99.90;;;;;;5054143;28;20259;-79
2021/07/14 00:04:35;;;;;;;21.83;15.30;;;16.10;99.90;;;;;;5054157;28;20265;-79
2021/07/14 00:07:02;;;;;;;21.33;14.80;;;16.00;99.90;;;;;;5033606;28;20232;-79
2021/07/14 00:09:29;;;;;;;20.03;15.17;;;16.00;99.90;;;;;;5036783;28;20259;-80
2021/07/14 00:11:57;;;;;;;21.20;14.80;;;16.00;99.90;;;;;;5034388;28;20228;-79
2021/07/14 00:17:25;;;;;;;21.07;15.30;;;16.10;99.90;;;;;;5008574;28;20736;-79
2021/07/14 00:22:39;;;;;;;22.37;15.53;;;16.00;99.90;;;;;;4996267;28;20232;-79
2021/07/14 00:25:11;;;;;;;24.40;14.60;;;16.00;99.90;;;;;;5010901;28;20235;-79
2021/07/14 00:27:39;;;;;;;22.47;15.87;;;16.00;99.90;;;;;;5005045;28;20649;-79
2021/07/14 00:30:09;;;;;;;22.37;15.33;;;16.00;99.90;;;;;;4995948;28;20201;-79
2021/07/14 00:32:38;;;;;;;23.80;15.97;;;16.00;99.90;;;;;;4992317;28;20190;-79
2021/07/14 00:35:07;;;;;;;23.67;15.83;;;16.10;99.90;;;;;;4991978;28;20721;-79
2021/07/14 00:37:34;;;;;;;24.07;16.10;;;16.10;99.90;;;;;;4994972;28;20719;-79
2021/07/14 00:40:02;;;;;;;21.97;14.80;;;16.10;99.90;;;;;;5010207;28;20296;-79
2021/07/14 00:42:29;;;;;;;26.20;15.67;;;16.20;99.90;;;;;;4995682;28;20396;-79
2021/07/14 00:44:56;;;;;;;22.20;15.10;;;16.20;99.90;;;;;;4991585;28;20205;-79
2021/07/14 00:47:28;;;;;;;21.63;14.60;;;16.20;99.90;;;;;;4991578;28;20237;-79
2021/07/14 00:49:56;;;;;;;22.80;15.10;;;16.20;99.90;;;;;;5007880;28;20209;-79
2021/07/14 00:52:24;;;;;;;21.37;15.20;;;16.20;99.90;;;;;;5011243;28;20284;-79
2021/07/14 00:54:51;;;;;;;19.53;14.93;;;16.20;99.90;;;;;;5025320;28;20287;-79
2021/07/14 00:57:20;;;;;;;23.17;14.53;;;16.10;99.90;;;;;;5033331;28;20292;-79
2021/07/14 00:59:47;;;;;;;22.00;15.10;;;16.10;99.90;;;;;;5033592;28;20207;-80
2021/07/14 01:02:14;;;;;;;21.30;15.20;;;16.10;99.90;;;;;;5033071;28;20307;-79
2021/07/14 01:04:44;;;;;;;21.07;14.70;;;16.00;99.90;;;;;;5039093;28;20227;-79
2021/07/14 01:07:18;;;;;;;23.60;15.30;;;16.00;99.90;;;;;;5052631;28;20235;-79
2021/07/14 01:09:53;;;;;;;20.37;14.00;;;16.10;99.90;;;;;;5050679;28;20626;-79
2021/07/14 01:12:32;;;;;;;21.77;14.50;;;16.00;99.90;;;;;;5032336;28;20224;-79
2021/07/14 01:15:04;;;;;;;20.63;14.10;;;16.00;99.90;;;;;;5033039;28;20231;-79
2021/07/14 01:17:36;;;;;;;23.17;13.73;;;16.10;99.90;;;;;;5048048;28;20196;-79
2021/07/14 01:20:18;;;;;;;17.83;13.53;;;16.10;99.90;;;;;;5034144;28;20727;-79
2021/07/14 01:22:57;;;;;;;23.07;14.07;;;16.10;99.90;;;;;;5033336;28;20232;-79
2021/07/14 01:25:33;;;;;;;20.87;13.73;;;16.10;99.90;;;;;;5032078;28;20204;-79
2021/07/14 01:28:04;;;;;;;21.67;13.10;;;16.00;99.90;;;;;;5039727;28;20199;-79
2021/07/14 01:30:32;;;;;;;21.07;12.87;;;16.00;99.90;;;;;;5053393;28;20231;-79
2021/07/14 01:33:02;;;;;;;19.10;13.40;;;16.10;99.90;;;;;;5053221;28;20641;-79
2021/07/14 01:35:33;;;;;;;21.57;13.23;;;16.10;99.90;;;;;;5050655;28;20290;-79
2021/07/14 01:38:02;;;;;;;19.10;13.00;;;16.10;99.90;;;;;;5052543;28;20239;-80
2021/07/14 01:40:30;;;;;;;23.67;13.50;;;16.10;99.90;;;;;;5052771;28;20734;-79
2021/07/14 01:43:00;;;;;;;21.27;13.37;;;16.10;99.90;;;;;;5047169;28;20298;-79
2021/07/14 01:45:32;;;;;;;17.83;12.50;;;16.10;99.90;;;;;;5033273;28;20623;-79
2021/07/14 01:48:01;;;;;;;17.97;12.83;;;16.10;99.90;;;;;;5032297;28;20263;-79
2021/07/14 01:50:30;;;;;;;20.70;13.33;;;16.10;99.90;;;;;;5032803;28;20196;-79
2021/07/14 01:52:57;;;;;;;21.70;13.60;;;16.10;99.90;;;;;;5044638;28;20406;-79
2021/07/14 01:55:25;;;;;;;23.33;13.90;;;16.10;99.90;;;;;;5051484;28;20236;-79
2021/07/14 01:57:55;;;;;;;19.70;13.63;;;16.10;99.90;;;;;;5052579;28;20629;-79
2021/07/14 02:00:23;;;;;;;16.67;12.53;;;16.10;99.90;;;;;;5046521;28;20393;-80
2021/07/14 02:02:55;;;;;;;19.43;13.23;;;16.10;99.90;;;;;;5039545;28;20307;-80
2021/07/14 02:05:23;;;;;;;24.73;13.40;;;16.10;99.90;;;;;;5031301;28;20204;-79
2021/07/14 02:07:51;;;;;;;22.10;13.37;;;16.10;99.90;;;;;;5031949;28;20286;-79
2021/07/14 02:10:18;;;;;;;23.70;13.70;;;16.00;99.90;;;;;;5043660;28;20278;-78
2021/07/14 02:12:49;;;;;;;19.93;13.53;;;16.00;99.90;;;;;;5049573;28;20196;-79
2021/07/14 02:15:18;;;;;;;23.47;14.60;;;16.00;99.90;;;;;;5031634;28;20202;-79
2021/07/14 02:17:51;;;;;;;23.83;13.80;;;16.00;99.90;;;;;;5030949;28;20300;-79
2021/07/14 02:20:21;;;;;;;22.53;14.00;;;16.10;99.90;;;;;;5031417;28;20287;-79
2021/07/14 02:22:50;;;;;;;24.20;14.07;;;16.10;99.90;;;;;;5038517;28;20310;-79
2021/07/14 02:25:17;;;;;;;19.37;13.97;;;16.10;99.90;;;;;;5040694;28;20287;-79
2021/07/14 02:27:45;;;;;;;22.77;13.43;;;16.10;99.90;;;;;;5032170;28;20287;-79
2021/07/14 02:30:18;;;;;;;25.90;14.00;;;16.10;99.90;;;;;;5037958;28;20278;-79
2021/07/14 02:32:47;;;;;;;19.40;13.57;;;16.10;99.90;;;;;;5035331;28;20664;-80
2021/07/14 02:35:14;;;;;;;21.10;13.53;;;16.10;99.90;;;;;;5047404;28;20200;-79
2021/07/14 02:37:50;;;;;;;19.70;12.97;;;16.10;99.90;;;;;;5051617;28;20297;-79
2021/07/14 02:40:24;;;;;;;26.10;13.43;;;16.10;99.90;;;;;;5051037;28;20252;-80
2021/07/14 02:42:53;;;;;;;20.80;13.47;;;16.20;99.90;;;;;;5046792;28;20258;-79
2021/07/14 02:45:22;;;;;;;21.40;13.50;;;16.20;99.90;;;;;;5051299;28;20231;-79
2021/07/14 02:47:50;;;;;;;20.03;13.00;;;16.20;99.90;;;;;;5051350;28;20326;-79
2021/07/14 02:50:19;;;;;;;24.17;13.00;;;16.20;99.90;;;;;;5050868;28;20282;-79
2021/07/14 02:52:51;;;;;;;24.77;14.00;;;16.20;99.90;;;;;;5050474;28;20291;-80
2021/07/14 02:55:22;;;;;;;23.23;13.80;;;16.20;99.90;;;;;;5050187;28;20200;-79
2021/07/14 02:57:54;;;;;;;20.53;12.93;;;16.20;99.90;;;;;;5031597;28;20627;-79
2021/07/14 03:00:22;;;;;;;20.87;13.03;;;16.20;99.90;;;;;;5031671;28;20643;-79
2021/07/14 03:02:51;;;;;;;23.80;13.40;;;16.20;99.90;;;;;;5031446;28;20723;-80
2021/07/14 03:05:19;;;;;;;25.17;14.10;;;16.20;99.90;;;;;;5031606;28;20279;-79
2021/07/14 03:07:48;;;;;;;20.53;12.97;;;16.20;99.90;;;;;;5040543;28;20196;-79
2021/07/14 03:10:18;;;;;;;24.63;13.10;;;16.20;99.90;;;;;;5050335;28;20283;-79
2021/07/14 03:12:46;;;;;;;19.20;13.10;;;16.20;99.90;;;;;;5031412;28;20304;-79
2021/07/14 03:15:14;;;;;;;22.53;13.87;;;16.20;99.90;;;;;;5041855;28;20715;-79
2021/07/14 03:17:44;;;;;;;19.67;13.50;;;16.20;99.90;;;;;;5051664;28;20250;-79
2021/07/14 03:20:15;;;;;;;26.77;13.50;;;16.20;99.90;;;;;;5035026;28;20243;-79
2021/07/14 03:22:44;;;;;;;23.87;13.77;;;16.20;99.90;;;;;;5035870;28;20255;-79
2021/07/14 03:25:14;;;;;;;23.53;13.90;;;16.20;99.90;;;;;;5055060;28;20286;-79
2021/07/14 03:27:42;;;;;;;23.77;14.43;;;16.20;99.90;;;;;;5054918;28;20235;-79
2021/07/14 03:30:10;;;;;;;24.10;13.90;;;16.20;99.90;;;;;;5055097;28;20287;-80
2021/07/14 03:32:39;;;;;;;25.77;14.47;;;16.20;99.90;;;;;;5055176;28;20227;-79
2021/07/14 03:35:07;;;;;;;19.63;13.70;;;16.20;99.90;;;;;;5054172;28;20290;-79
2021/07/14 03:37:35;;;;;;;22.43;13.20;;;16.20;99.90;;;;;;5054308;28;20278;-79
2021/07/14 03:40:04;;;;;;;21.83;13.60;;;16.20;99.90;;;;;;5054086;28;20655;-79
2021/07/14 03:42:33;;;;;;;21.40;13.53;;;16.20;99.90;;;;;;5042141;28;20228;-79
2021/07/14 03:45:01;;;;;;;22.43;13.40;;;16.10;99.90;;;;;;5034174;28;20232;-79
2021/07/14 03:47:28;;;;;;;23.47;13.43;;;16.10;99.90;;;;;;5039650;28;20224;-79
2021/07/14 03:49:56;;;;;;;24.50;12.77;;;16.10;99.90;;;;;;5054016;28;20706;-79
2021/07/14 03:52:25;;;;;;;24.70;13.50;;;16.10;99.90;;;;;;5053151;28;20283;-79
2021/07/14 03:54:52;;;;;;;21.47;13.90;;;16.10;99.90;;;;;;5054245;28;20231;-79
2021/07/14 03:57:19;;;;;;;26.07;13.13;;;16.10;99.90;;;;;;5053028;28;20246;-79
2021/07/14 03:59:48;;;;;;;21.80;13.27;;;16.10;99.90;;;;;;5053100;28;20286;-79
2021/07/14 04:02:16;;;;;;;24.47;13.30;;;16.10;99.90;;;;;;5054070;28;20227;-79
2021/07/14 04:04:46;;;;;;;23.37;13.73;;;16.10;99.90;;;;;;5054281;28;20290;-79
2021/07/14 04:07:16;;;;;;;20.97;13.50;;;16.10;99.90;;;;;;5053403;28;20687;-79
2021/07/14 04:09:45;;;;;;;24.13;14.00;;;16.10;99.90;;;;;;5053468;28;20287;-79
2021/07/14 04:12:12;;;;;;;23.73;13.23;;;16.10;99.90;;;;;;5054077;28;20225;-79
2021/07/14 04:14:40;;;;;;;19.70;12.90;;;16.10;99.90;;;;;;5046563;28;20232;-79
2021/07/14 04:17:08;;;;;;;18.90;13.03;;;16.10;99.90;;;;;;5053049;28;20283;-79
2021/07/14 04:19:36;;;;;;;21.27;13.13;;;16.00;99.90;;;;;;5053508;28;20234;-80
2021/07/14 04:22:04;;;;;;;27.13;13.17;;;16.10;99.90;;;;;;5047020;28;20311;-79
2021/07/14 04:24:31;;;;;;;23.67;13.23;;;16.10;99.90;;;;;;5054011;28;20634;-79
2021/07/14 04:26:58;;;;;;;25.43;12.70;;;16.10;99.90;;;;;;5053462;28;20239;-80
2021/07/14 04:29:26;;;;;;;20.20;12.60;;;16.10;99.90;;;;;;5043973;28;20257;-79
2021/07/14 04:31:52;;;;;;;19.30;13.07;;;16.10;99.90;;;;;;5053612;28;20291;-79
2021/07/14 04:34:21;;;;;;;22.47;12.80;;;16.10;99.90;;;;;;5050531;28;20643;-79
2021/07/14 04:36:48;;;;;;;26.47;12.37;;;16.10;99.90;;;;;;5033514;28;20611;-79
2021/07/14 04:39:15;;;;;;;21.73;12.07;;;16.10;99.90;;;;;;5033344;28;20615;-79
2021/07/14 04:41:42;;;;;;;21.53;12.50;;;16.20;99.90;;;;;;5033645;28;20234;-79
2021/07/14 04:44:10;;;;;;;22.73;13.73;;;16.20;99.90;;;;;;5040239;28;20207;-80
2021/07/14 04:46:38;;;;;;;18.67;12.47;;;16.20;99.90;;;;;;5053326;28;20236;-79
2021/07/14 04:49:05;;;;;;;26.70;13.43;;;16.20;99.90;;;;;;5053456;28;20250;-79
2021/07/14 04:51:33;;;;;;;21.70;12.63;;;16.30;99.90;;;;;;5052796;28;20227;-79
2021/07/14 04:54:00;;;;;;;18.60;12.93;;;16.20;99.90;;;;;;5040358;28;20410;-79
2021/07/14 04:56:27;;;;;;;18.73;12.63;;;16.30;99.90;;;;;;5033194;28;20287;-79
2021/07/14 04:58:54;;;;;;;19.63;12.53;;;16.30;99.90;;;;;;5033272;28;20232;-79
2021/07/14 05:01:21;;;;;;;20.23;12.30;;;16.30;99.90;;;;;;5036437;28;20232;-79
2021/07/14 05:03:48;;;;;;;21.43;12.70;;;16.30;99.90;;;;;;5032489;28;20359;-79
2021/07/14 05:06:17;;;;;;;22.00;12.03;;;16.30;99.90;;;;;;5033118;28;20291;-79
2021/07/14 05:08:46;;;;;;;20.10;12.13;;;16.40;99.90;;;;;;5033161;28;20232;-79
2021/07/14 05:11:14;;;;;;;19.57;12.63;;;16.30;99.90;;;;;;5032970;28;20236;-79
2021/07/14 05:13:41;;;;;;;24.13;12.73;;;16.40;99.90;;;;;;5032912;28;20291;-79
2021/07/14 05:16:09;;;;;;;20.50;12.37;;;16.40;99.90;;;;;;5033071;28;20232;-79
2021/07/14 05:18:36;;;;;;;17.60;12.30;;;16.50;99.90;;;;;;5046785;28;20192;-79
2021/07/14 05:21:03;;;;;;;19.27;12.13;;;16.40;99.90;;;;;;5052945;28;20277;-79
2021/07/14 05:23:30;;;;;;;18.90;12.30;;;16.40;99.90;;;;;;5052862;28;20668;-79
2021/07/14 05:25:59;;;;;;;19.40;11.40;;;16.40;99.90;;;;;;5052487;28;20286;-79
2021/07/14 05:28:26;;;;;;;18.83;11.80;;;16.40;99.90;;;;;;5053158;28;20250;-79
2021/07/14 05:30:53;;;;;;;18.90;12.13;;;16.40;99.90;;;;;;5053096;28;20656;-79
2021/07/14 05:33:20;;;;;;;18.53;11.47;;;16.40;99.90;;;;;;5052452;28;20294;-79
2021/07/14 05:35:48;;;;;;;18.40;11.63;;;16.40;99.90;;;;;;5038580;28;20284;-80
2021/07/14 05:38:19;;;;;;;20.47;12.30;;;16.40;99.90;;;;;;5048544;28;20228;-79
2021/07/14 05:40:46;;;;;;;19.73;12.23;;;16.50;99.90;;;;;;5051767;28;20242;-79
2021/07/14 05:43:15;;;;;;;17.70;11.93;;;16.50;99.90;;;;;;5051358;28;20259;-79
2021/07/14 05:45:42;;;;;;;20.00;11.93;;;16.50;99.90;;;;;;5052056;28;20231;-79
2021/07/14 05:48:09;;;;;;;20.10;11.37;;;16.50;99.90;;;;;;5051295;28;20327;-79
2021/07/14 05:50:36;;;;;;;15.03;10.80;;;16.60;99.90;;;;;;5050445;28;20889;-79
2021/07/14 05:53:04;;;;;;;17.53;11.00;;;16.60;99.90;;;;;;5052226;28;20200;-79
2021/07/14 05:55:31;;;;;;;21.03;11.67;;;16.50;99.90;;;;;;5052062;28;20628;-79
2021/07/14 05:57:58;;;;;;;18.33;11.47;;;16.60;99.90;;;;;;5051536;28;20242;-79
2021/07/14 06:00:27;;;;;;;18.77;11.20;;;16.60;99.90;;;;;;5052222;28;20291;-79
2021/07/14 06:02:54;;;;;;;16.17;11.37;;;16.60;99.90;;;;;;5051524;28;20314;-79
2021/07/14 06:05:20;;;;;;;15.43;10.30;;;16.60;99.90;;;;;;5031867;28;20246;-79
2021/07/14 06:07:47;;;;;;;15.37;10.70;;;16.70;99.90;;;;;;5032352;28;20232;-79
2021/07/14 06:10:14;;;;;;;16.80;10.03;;;16.70;99.90;;;;;;5032205;28;20283;-79
2021/07/14 06:12:41;;;;;;;17.33;10.53;;;16.80;99.90;;;;;;5045875;28;20285;-79
2021/07/14 06:15:09;;;;;;;16.43;9.80;;;16.80;99.90;;;;;;5052145;28;20589;-79
2021/07/14 06:17:37;;;;;;;14.77;10.93;;;16.90;99.90;;;;;;5051271;28;20283;-79
2021/07/14 06:20:05;;;;;;;17.73;10.23;;;17.00;99.90;;;;;;5037678;28;20357;-79
2021/07/14 06:22:32;;;;;;;14.77;9.32;;;17.10;99.90;;;;;;5031497;28;20303;-79
2021/07/14 06:24:59;;;;;;;14.30;9.90;;;17.20;99.90;;;;;;5037977;28;20199;-79
2021/07/14 06:27:26;;;;;;;13.60;9.63;;;17.30;99.90;;;;;;5037781;28;20231;-79
2021/07/14 06:29:53;;;;;;;12.35;8.80;;;17.40;99.90;;;;;;5031921;28;20288;-79
2021/07/14 06:32:20;;;;;;;12.48;9.30;;;17.40;99.90;;;;;;5033021;28;20610;-79
2021/07/14 06:34:48;;;;;;;13.30;8.95;;;17.40;99.90;;;;;;5032027;28;20342;-79
2021/07/14 06:37:15;;;;;;;11.70;8.93;;;17.40;99.90;;;;;;5031640;28;20672;-79
2021/07/14 06:39:42;;;;;;;15.18;8.32;;;17.50;99.90;;;;;;5031930;28;20239;-79
2021/07/14 06:42:10;;;;;;;13.93;8.85;;;17.30;99.90;;;;;;5031923;28;20311;-79
2021/07/14 06:44:37;;;;;;;12.48;8.57;;;17.20;99.90;;;;;;5031211;28;20595;-79
2021/07/14 06:47:05;;;;;;;13.32;8.88;;;17.20;99.90;;;;;;5031235;28;20243;-79
2021/07/14 06:49:32;;;;;;;14.45;8.70;;;17.30;99.90;;;;;;5039406;28;20701;-80
2021/07/14 06:52:01;;;;;;;12.27;8.68;;;17.20;99.90;;;;;;5049226;28;20287;-80
2021/07/14 06:54:28;;;;;;;15.00;9.18;;;17.40;99.90;;;;;;5034966;28;20199;-79
2021/07/14 06:56:55;;;;;;;16.35;8.93;;;17.40;99.90;;;;;;5039369;28;20230;-80
2021/07/14 06:59:22;;;;;;;14.27;8.98;;;17.40;99.90;;;;;;5048302;28;20295;-79
2021/07/14 07:01:49;;;;;;;13.80;8.90;;;17.50;99.90;;;;;;5044288;28;20241;-79
2021/07/14 07:04:16;;;;;;;13.60;8.10;;;17.40;99.90;;;;;;5040611;28;20311;-79
2021/07/14 07:06:43;;;;;;;10.10;8.68;;;17.40;99.90;;;;;;5035147;28;20224;-79
2021/07/14 07:09:11;;;;;;;14.10;8.98;;;17.40;99.90;;;;;;5035418;28;20255;-80
2021/07/14 07:11:38;;;;;;;12.57;8.30;;;17.40;99.90;;;;;;5034982;28;20232;-79
2021/07/14 07:14:05;;;;;;;12.20;8.10;;;17.50;99.90;;;;;;5043530;28;20286;-79
2021/07/14 07:16:32;;;;;;;13.75;9.02;;;17.50;99.90;;;;;;5054979;28;20249;-78
2021/07/14 07:18:59;;;;;;;12.35;8.57;;;17.40;99.90;;;;;;5050436;28;20275;-79
2021/07/14 07:21:26;;;;;;;11.20;8.05;;;17.50;99.90;;;;;;5041823;28;20247;-79
2021/07/14 07:23:53;;;;;;;12.48;8.57;;;17.70;99.90;;;;;;5043859;28;20255;-79
2021/07/14 07:26:22;;;;;;;10.40;7.95;;;17.90;99.90;;;;;;5043471;28;20290;-79
2021/07/14 07:28:51;;;;;;;11.00;8.13;;;18.10;99.90;;;;;;5050778;28;20236;-79
2021/07/14 07:31:18;;;;;;;10.35;7.88;;;18.30;99.90;;;;;;5045848;28;20664;-79
2021/07/14 07:33:45;;;;;;;12.40;7.63;;;18.50;99.90;;;;;;5035275;28;20275;-79
2021/07/14 07:36:12;;;;;;;11.50;7.50;;;18.60;99.90;;;;;;5035747;28;20231;-79
2021/07/14 07:38:40;;;;;;;9.10;7.30;;;18.90;99.90;;;;;;5055104;28;20259;-80
2021/07/14 07:41:07;;;;;;;10.88;7.50;;;18.90;99.90;;;;;;5054605;28;20866;-79
2021/07/14 07:43:35;;;;;;;16.02;7.90;;;18.60;99.90;;;;;;5034773;28;20235;-79
2021/07/14 07:46:02;;;;;;;12.88;7.50;;;18.60;99.90;;;;;;5038866;28;20656;-79
2021/07/14 07:48:29;;;;;;;9.18;7.15;;;18.50;99.90;;;;;;5052569;28;20240;-79
2021/07/14 07:50:57;;;;;;;10.27;6.88;;;18.40;99.90;;;;;;5044185;28;20278;-79
2021/07/14 07:53:25;;;;;;;11.27;7.82;;;18.20;99.90;;;;;;5034763;28;20283;-78
2021/07/14 07:55:53;;;;;;;11.95;8.30;;;18.00;99.90;;;;;;5034878;28;20313;-79
2021/07/14 07:58:21;;;;;;;16.25;7.97;;;17.80;99.90;;;;;;5034583;28;20235;-79
2021/07/14 08:00:49;;;;;;;11.43;7.75;;;17.90;99.90;;;;;;5040142;28;20690;-79
2021/07/14 08:03:16;;;;;;;9.50;7.43;;;17.90;99.90;;;;;;5038612;28;20252;-78
2021/07/14 08:05:44;;;;;;;8.52;6.90;;;18.20;99.90;;;;;;5034393;28;20211;-78
2021/07/14 08:08:11;;;;;;;9.90;6.95;;;18.30;99.90;;;;;;5034615;28;20235;-79
2021/07/14 08:10:38;;;;;;;10.82;7.60;;;18.30;99.90;;;;;;5034350;28;20653;-78
2021/07/14 08:13:05;;;;;;;9.15;7.43;;;18.10;99.90;;;;;;5036050;28;20209;-79
2021/07/14 08:15:33;;;;;;;8.82;7.63;;;17.80;99.90;;;;;;5039107;28;20240;-79
2021/07/14 08:18:01;;;;;;;13.40;8.13;;;17.80;99.90;;;;;;5048103;28;20224;-78
2021/07/14 08:20:29;;;;;;;14.38;8.02;;;17.90;99.90;;;;;;5038317;28;20584;-78
2021/07/14 08:22:56;;;;;;;8.63;7.72;;;17.90;99.90;;;;;;5045981;28;20707;-78
2021/07/14 08:25:24;;;;;;;12.70;7.32;;;18.10;99.90;;;;;;5033943;28;20291;-78
2021/07/14 08:27:51;;;;;;;13.77;8.02;;;18.30;99.90;;;;;;5050053;28;20287;-78
2021/07/14 08:30:19;;;;;;;12.20;8.20;;;18.30;99.90;;;;;;5043195;28;20200;-78
2021/07/14 08:32:46;;;;;;;10.27;7.70;;;18.40;99.90;;;;;;5033216;28;20238;-78
2021/07/14 08:35:14;;;;;;;10.85;7.38;;;18.50;99.90;;;;;;5033751;28;20299;-79
2021/07/14 08:37:42;;;;;;;9.95;7.72;;;18.70;99.90;;;;;;5034033;28;20235;-78
2021/07/14 08:40:10;;;;;;;12.25;7.55;;;19.00;99.90;;;;;;5034009;28;20232;-78
2021/07/14 08:42:39;;;;;;;12.25;7.45;;;19.30;99.90;;;;;;5033094;28;20208;-78
2021/07/14 08:45:08;;;;;;;8.75;7.05;;;19.60;99.90;;;;;;5033197;28;20228;-79
2021/07/14 08:47:35;;;;;;;8.75;6.63;;;20.20;99.90;;;;;;5033598;28;20315;-79
2021/07/14 08:50:02;;;;;;;10.20;7.10;;;20.20;99.90;;;;;;5033355;28;20243;-79
2021/07/14 08:52:30;;;;;;;7.85;7.05;;;20.10;99.90;;;;;;5041465;28;20250;-78
2021/07/14 08:54:57;;;;;;;8.43;6.65;;;20.40;99.90;;;;;;5044192;28;20287;-79
2021/07/14 08:57:24;;;;;;;9.32;7.03;;;20.80;99.90;;;;;;5040619;28;20647;-79
2021/07/14 08:59:51;;;;;;;7.50;6.22;;;21.50;99.90;;;;;;5041908;28;20287;-79
2021/07/14 09:02:18;;;;;;;7.13;6.40;;;21.40;99.90;;;;;;5048449;28;20282;-79
2021/07/14 09:04:45;;;;;;;9.35;6.60;;;21.20;99.90;;;;;;5032770;28;20311;-79
2021/07/14 09:07:15;;;;;;;7.75;6.57;;;21.10;99.90;;;;;;5048399;28;20235;-78
2021/07/14 09:09:44;;;;;;;9.45;6.40;;;21.50;99.90;;;;;;5036104;28;20250;-79
2021/07/14 09:12:13;;;;;;;6.47;5.88;;;22.40;99.90;;;;;;5051172;28;20291;-79
2021/07/14 09:14:43;;;;;;;8.70;6.15;;;23.60;99.90;;;;;;5035807;28;20207;-79
2021/07/14 09:17:25;;;;;;;7.03;5.80;;;24.10;99.90;;;;;;5035209;28;20286;-79
2021/07/14 09:19:54;;;;;;;7.57;5.68;;;25.50;99.90;;;;;;5038070;28;20200;-79
2021/07/14 09:22:22;;;;;;;7.57;6.00;;;25.30;99.90;;;;;;5046356;28;20243;-79
2021/07/14 09:24:56;;;;;;;6.75;5.80;;;23.90;99.90;;;;;;5040331;28;20618;-79
2021/07/14 09:27:27;;;;;;;8.27;5.68;;;23.60;99.90;;;;;;5048166;28;20203;-81
2021/07/14 09:30:18;;;;;;;6.80;6.00;;;22.90;99.90;;;;;;5042870;28;20220;-80
2021/07/14 09:32:51;;;;;;;8.18;6.15;;;22.60;99.90;;;;;;5021983;28;20195;-79
2021/07/14 09:35:30;;;;;;;7.38;6.60;;;21.90;99.90;;;;;;5040702;28;20636;-79
2021/07/14 09:37:58;;;;;;;7.15;6.20;;;21.40;99.90;;;;;;5047746;28;20878;-79
2021/07/14 09:40:28;;;;;;;7.70;6.90;;;21.60;99.90;;;;;;5037750;28;20692;-79
2021/07/14 09:42:58;;;;;;;7.68;6.88;;;21.40;99.90;;;;;;5051571;28;20300;-78
2021/07/14 09:45:40;;;;;;;9.80;6.93;;;20.90;99.90;;;;;;5038999;28;20658;-78
2021/07/14 09:48:09;;;;;;;7.57;6.88;;;20.50;99.90;;;;;;5047195;28;20310;-78
2021/07/14 09:50:38;;;;;;;7.68;6.85;;;20.40;99.90;;;;;;5037623;28;20232;-79
2021/07/14 09:53:08;;;;;;;13.10;10.57;;;20.60;99.90;;;;;;5043294;28;20291;-78
2021/07/14 09:55:38;;;;;;;10.20;8.43;;;20.70;99.90;;;;;;5040466;28;20224;-79
2021/07/14 09:58:14;;;;;;;8.35;7.55;;;20.80;99.90;;;;;;5039672;28;20200;-78
2021/07/14 10:00:43;;;;;;;8.90;7.85;;;20.70;99.90;;;;;;5040076;28;20282;-79
2021/07/14 10:03:16;;;;;;;13.10;7.45;;;20.70;99.90;;;;;;5041146;28;20367;-79
2021/07/14 10:05:44;;;;;;;8.63;7.65;;;20.90;99.90;;;;;;5046687;28;20616;-79
2021/07/14 10:08:15;;;;;;;8.15;7.35;;;20.90;99.90;;;;;;5050096;28;20283;-78
2021/07/14 10:10:44;;;;;;;8.60;7.70;;;20.70;99.90;;;;;;5044726;28;20646;-79
2021/07/14 10:13:12;;;;;;;9.02;8.13;;;20.50;99.90;;;;;;5031346;28;20197;-78
2021/07/14 10:15:40;;;;;;;9.65;8.45;;;20.90;99.90;;;;;;5045428;28;20278;-78
2021/07/14 10:18:11;;;;;;;9.45;7.97;;;20.90;99.90;;;;;;5051811;28;20204;-79
2021/07/14 10:20:41;;;;;;;8.73;7.72;;;20.70;99.90;;;;;;5044771;28;20613;-79
2021/07/14 10:23:09;;;;;;;9.27;8.27;;;20.60;99.90;;;;;;5031204;28;20203;-79
2021/07/14 10:25:38;;;;;;;9.35;7.55;;;20.80;99.90;;;;;;5035772;28;20254;-79
2021/07/14 10:28:09;;;;;;;8.35;7.40;;;21.10;99.90;;;;;;5037864;28;20251;-79
2021/07/14 10:30:37;;;;;;;7.75;6.95;;;21.20;99.90;;;;;;5039734;28;20204;-79
2021/07/14 10:33:06;;;;;;;9.77;7.22;;;21.80;99.90;;;;;;5039015;28;20232;-79
2021/07/14 10:35:38;;;;;;;8.90;7.43;;;21.50;99.90;;;;;;5034535;28;20212;-78
2021/07/14 10:38:10;;;;;;;9.50;7.18;;;21.50;99.90;;;;;;5047545;28;20287;-78
2021/07/14 10:40:37;;;;;;;9.63;7.55;;;21.70;99.90;;;;;;5049342;28;20738;-79
2021/07/14 10:43:06;;;;;;;23.05;13.40;;;21.90;99.90;;;;;;5039637;28;20288;-81
2021/07/14 10:45:34;;;;;;;16.80;12.65;;;22.10;99.90;;;;;;5042201;28;20311;-79
2021/07/14 10:48:01;;;;;;;10.27;8.30;;;21.80;99.90;;;;;;5042604;28;20259;-80
2021/07/14 10:50:29;;;;;;;10.05;8.40;;;21.70;99.90;;;;;;5051546;28;20286;-80
2021/07/14 10:52:56;;;;;;;9.70;7.80;;;21.60;99.90;;;;;;5046615;28;20204;-81
2021/07/14 10:55:26;;;;;;;9.80;7.72;;;21.80;99.90;;;;;;5040474;28;20230;-80
2021/07/14 10:57:55;;;;;;;7.15;6.38;;;21.90;99.90;;;;;;5044071;28;20239;-80
2021/07/14 11:00:24;;;;;;;11.18;7.35;;;22.30;99.90;;;;;;5042490;28;20223;-80
2021/07/14 11:02:52;;;;;;;10.63;7.50;;;22.10;99.90;;;;;;5031559;28;20287;-79
2021/07/14 11:05:33;;;;;;;8.52;7.45;;;21.90;99.90;;;;;;5030662;28;20298;-80
2021/07/14 11:08:00;;;;;;;8.32;6.85;;;22.40;99.90;;;;;;5031064;28;20287;-80
2021/07/14 11:10:31;;;;;;;9.32;7.03;;;22.30;99.90;;;;;;5032091;28;20236;-82
2021/07/14 11:12:59;;;;;;;8.95;6.78;;;22.90;99.90;;;;;;5037081;28;20283;-81
2021/07/14 11:15:43;;;;;;;9.52;7.53;;;23.20;99.90;;;;;;5031885;28;20224;-82
2021/07/14 11:18:38;;;;;;;10.05;6.72;;;23.30;99.90;;;;;;5040287;28;20231;-79
2021/07/14 11:21:05;;;;;;;8.52;6.82;;;23.80;99.90;;;;;;5034368;28;20311;-81
2021/07/14 11:23:33;;;;;;;7.50;6.80;;;23.70;99.90;;;;;;5046187;28;20227;-82
2021/07/14 11:26:02;;;;;;;10.55;6.50;;;23.70;99.90;;;;;;5040271;28;20330;-81
2021/07/14 11:28:30;;;;;;;8.48;6.90;;;23.70;99.90;;;;;;5031792;28;20192;-82
2021/07/14 11:31:09;;;;;;;7.55;6.85;;;23.20;99.90;;;;;;5032707;28;20715;-82
2021/07/14 11:33:38;;;;;;;7.72;6.93;;;24.20;99.90;;;;;;5031661;28;20211;-81
2021/07/14 11:36:08;;;;;;;7.28;6.55;;;23.70;99.90;;;;;;5033087;28;20220;-82
2021/07/14 11:38:53;;;;;;;8.70;7.15;;;24.10;99.90;;;;;;5033807;28;20224;-82
2021/07/14 11:41:22;;;;;;;8.30;6.57;;;24.20;99.90;;;;;;5039181;28;20195;-82
2021/07/14 11:43:53;;;;;;;7.72;7.03;;;24.30;99.90;;;;;;5041086;28;20291;-82
2021/07/14 11:46:26;;;;;;;7.75;6.80;;;24.10;99.90;;;;;;5041250;28;20244;-80
2021/07/14 11:49:01;;;;;;;8.65;7.00;;;23.50;99.90;;;;;;5034648;28;20227;-80
2021/07/14 11:51:29;;;;;;;8.88;7.20;;;23.10;99.90;;;;;;5053756;28;20286;-80
2021/07/14 11:53:58;;;;;;;8.15;6.97;;;22.50;99.90;;;;;;5046233;28;20207;-81
2021/07/14 11:56:38;;;;;;;8.93;6.20;;;23.30;99.90;;;;;;5035125;28;20750;-81
2021/07/14 11:59:19;;;;;;;7.18;6.25;;;25.20;99.90;;;;;;5044549;28;20219;-82
2021/07/14 12:01:57;;;;;;;7.40;6.30;;;24.10;99.90;;;;;;5036325;28;20269;-80
2021/07/14 12:04:29;;;;;;;8.57;6.22;;;23.30;99.90;;;;;;5033973;28;20323;-79
2021/07/14 12:07:03;;;;;;;8.60;6.80;;;23.00;99.90;;;;;;5051119;28;20221;-80
2021/07/14 12:09:36;;;;;;;8.32;6.35;;;23.20;99.90;;;;;;5036737;28;20278;-80
2021/07/14 12:12:06;;;;;;;7.03;5.70;;;24.20;99.90;;;;;;5043153;28;20371;-79
2021/07/14 12:14:35;;;;;;;7.50;5.90;;;24.10;99.90;;;;;;5050110;28;20235;-79
2021/07/14 12:17:07;;;;;;;7.43;6.22;;;23.30;99.90;;;;;;5049186;28;20283;-79
2021/07/14 12:19:36;;;;;;;7.43;5.80;;;23.90;99.90;;;;;;5040361;28;20227;-79
2021/07/14 12:22:06;;;;;;;6.43;5.57;;;24.70;99.90;;;;;;5051539;28;20242;-79
2021/07/14 12:24:36;;;;;;;6.38;5.60;;;26.70;99.90;;;;;;5035177;28;20664;-79
2021/07/14 12:27:09;;;;;;;5.85;5.22;;;27.40;99.90;;;;;;5040483;28;20235;-79
2021/07/14 12:29:36;;;;;;;5.38;4.75;;;27.70;99.90;;;;;;5033995;28;20192;-79
2021/07/14 12:32:05;;;;;;;5.97;4.88;;;27.90;99.90;;;;;;5037156;28;20238;-78
2021/07/14 12:34:34;;;;;;;4.93;4.35;;;27.60;99.90;;;;;;5046042;28;20197;-79
2021/07/14 12:37:01;;;;;;;5.78;4.45;;;27.00;99.90;;;;;;5048619;28;20203;-79
2021/07/14 12:39:31;;;;;;;5.35;4.45;;;26.80;99.90;;;;;;5042759;28;20235;-78
2021/07/14 12:42:00;;;;;;;7.72;5.70;;;25.80;99.90;;;;;;5046503;28;20359;-79
2021/07/14 12:44:28;;;;;;;5.28;4.78;;;25.70;99.90;;;;;;5050765;28;20254;-79
2021/07/14 12:46:55;;;;;;;6.20;4.43;;;25.70;99.90;;;;;;5050225;28;20282;-79
2021/07/14 12:49:24;;;;;;;4.80;4.22;;;25.70;99.90;;;;;;5049626;28;20234;-78
2021/07/14 12:52:06;;;;;;;5.03;4.53;;;25.60;99.90;;;;;;5047626;28;20197;-79